createdAt,value
2018-09-03T00:00:03.161Z,16.15
2018-09-03T00:00:07.147Z,16.14
2018-09-03T00:00:11.344Z,16.14
2018-09-03T00:00:15.444Z,16.15
2018-09-03T00:00:19.645Z,16.14
2018-09-03T00:00:23.862Z,16.14
2018-09-03T00:00:28.171Z,16.14
2018-09-03T00:00:32.269Z,16.14
2018-09-03T00:00:36.251Z,16.14
2018-09-03T00:00:40.442Z,16.14
2018-09-03T00:00:44.640Z,16.14
2018-09-03T00:00:48.728Z,16.14
2018-09-03T00:00:53.038Z,16.14
2018-09-03T00:00:57.337Z,16.14
2018-09-03T00:01:01.426Z,16.14
2018-09-03T00:01:05.613Z,16.14
2018-09-03T00:01:09.817Z,16.14
2018-09-03T00:01:14.010Z,16.14
2018-09-03T00:01:18.208Z,16.14
2018-09-03T00:01:22.192Z,16.13
2018-09-03T00:01:26.282Z,16.13
2018-09-03T00:01:30.376Z,16.13
2018-09-03T00:01:34.576Z,16.13
2018-09-03T00:01:38.783Z,16.13
2018-09-03T00:01:42.889Z,16.13
2018-09-03T00:01:46.979Z,16.13
2018-09-03T00:01:51.179Z,16.12
2018-09-03T00:01:55.274Z,16.12
2018-09-03T00:01:59.579Z,16.12
2018-09-03T00:02:03.673Z,16.13
2018-09-03T00:02:07.874Z,16.12
2018-09-03T00:02:12.074Z,16.12
2018-09-03T00:02:16.169Z,16.12
2018-09-03T00:02:20.480Z,16.12
2018-09-03T00:02:24.570Z,16.11
2018-09-03T00:02:28.655Z,16.12
2018-09-03T00:02:32.850Z,16.11
2018-09-03T00:02:37.070Z,16.11
2018-09-03T00:02:41.272Z,16.1
2018-09-03T00:02:45.361Z,16.11
2018-09-03T00:02:49.348Z,16.1
2018-09-03T00:02:53.540Z,16.1
2018-09-03T00:02:57.745Z,16.11
2018-09-03T00:03:01.943Z,16.1
2018-09-03T00:03:05.928Z,16.1
2018-09-03T00:03:10.231Z,16.1
2018-09-03T00:03:14.535Z,16.09
2018-09-03T00:03:18.832Z,16.1
2018-09-03T00:03:23.023Z,16.1
2018-09-03T00:03:27.324Z,16.1
2018-09-03T00:03:31.411Z,16.1
2018-09-03T00:03:35.614Z,16.09
2018-09-03T00:03:39.809Z,16.09
2018-09-03T00:03:44.010Z,16.09
2018-09-03T00:03:48.202Z,16.09
2018-09-03T00:03:52.079Z,16.09
2018-09-03T00:03:56.172Z,16.08
2018-09-03T00:04:00.165Z,16.08
2018-09-03T00:04:04.476Z,16.08
2018-09-03T00:04:08.567Z,16.07
2018-09-03T00:04:12.877Z,16.08
2018-09-03T00:04:16.972Z,16.07
2018-09-03T00:04:20.850Z,16.07
2018-09-03T00:04:24.952Z,16.07
2018-09-03T00:04:29.150Z,16.06
2018-09-03T00:04:33.135Z,16.06
2018-09-03T00:04:37.116Z,16.06
2018-09-03T00:04:41.228Z,16.06
2018-09-03T00:04:45.534Z,16.06
2018-09-03T00:04:49.744Z,16.07
2018-09-03T00:04:54.054Z,16.06
2018-09-03T00:04:58.148Z,16.05
2018-09-03T00:05:02.351Z,16.05
2018-09-03T00:05:06.574Z,16.06
2018-09-03T00:05:10.877Z,16.06
2018-09-03T00:05:14.863Z,16.04
2018-09-03T00:05:18.989Z,16.06
2018-09-03T00:05:22.981Z,16.04
2018-09-03T00:05:27.177Z,16.05
2018-09-03T00:05:31.279Z,16.05
2018-09-03T00:05:35.378Z,16.05
2018-09-03T00:05:39.685Z,16.05
2018-09-03T00:05:43.875Z,16.04
2018-09-03T00:05:47.971Z,16.06
2018-09-03T00:05:52.060Z,16.05
2018-09-03T00:05:56.365Z,16.05
2018-09-03T00:06:00.556Z,16.04
2018-09-03T00:06:04.650Z,16.03
2018-09-03T00:06:08.864Z,16.04
2018-09-03T00:06:13.057Z,16.03
2018-09-03T00:06:17.078Z,16.03
2018-09-03T00:06:21.272Z,16.03
2018-09-03T00:06:25.367Z,16.04
2018-09-03T00:06:29.671Z,16.03
2018-09-03T00:06:33.871Z,16.02
2018-09-03T00:06:38.068Z,16.03
2018-09-03T00:06:42.160Z,16.03
2018-09-03T00:06:46.253Z,16.03
2018-09-03T00:06:50.451Z,16.02
2018-09-03T00:06:54.569Z,16.02
2018-09-03T00:06:58.656Z,16.01
2018-09-03T00:07:02.755Z,16.02
2018-09-03T00:07:06.957Z,16.01
2018-09-03T00:07:11.052Z,16.01
2018-09-03T00:07:15.144Z,16
2018-09-03T00:07:19.127Z,16.01
2018-09-03T00:07:23.216Z,16.01
2018-09-03T00:07:27.307Z,16.01
2018-09-03T00:07:31.407Z,16
2018-09-03T00:07:35.606Z,16
2018-09-03T00:07:39.803Z,16
2018-09-03T00:07:44.172Z,15.99
2018-09-03T00:07:48.377Z,15.99
2018-09-03T00:07:52.368Z,15.99
2018-09-03T00:07:56.564Z,15.99
2018-09-03T00:08:00.759Z,15.99
2018-09-03T00:08:05.109Z,15.99
2018-09-03T00:08:09.412Z,15.99
2018-09-03T00:08:13.398Z,15.99
2018-09-03T00:08:17.590Z,15.99
2018-09-03T00:08:21.787Z,15.98
2018-09-03T00:08:25.988Z,15.99
2018-09-03T00:08:30.185Z,15.99
2018-09-03T00:08:34.186Z,15.99
2018-09-03T00:08:38.380Z,15.98
2018-09-03T00:08:42.680Z,15.98
2018-09-03T00:08:46.887Z,15.98
2018-09-03T00:08:50.872Z,15.98
2018-09-03T00:08:55.065Z,15.99
2018-09-03T00:08:59.265Z,15.99
2018-09-03T00:09:03.514Z,15.98
2018-09-03T00:09:07.500Z,15.98
2018-09-03T00:09:11.813Z,15.98
2018-09-03T00:09:15.905Z,15.98
2018-09-03T00:09:20.118Z,15.99
2018-09-03T00:09:24.203Z,15.98
2018-09-03T00:09:28.297Z,15.98
2018-09-03T00:09:32.284Z,15.98
2018-09-03T00:09:36.266Z,15.98
2018-09-03T00:09:40.458Z,15.98
2018-09-03T00:09:44.759Z,15.99
2018-09-03T00:09:49.109Z,15.98
2018-09-03T00:09:53.306Z,15.98
2018-09-03T00:09:57.611Z,15.98
2018-09-03T00:10:01.593Z,15.98
2018-09-03T00:10:05.577Z,15.98
2018-09-03T00:10:09.670Z,15.98
2018-09-03T00:10:13.861Z,15.98
2018-09-03T00:10:18.052Z,15.98
2018-09-03T00:10:22.359Z,15.99
2018-09-03T00:10:26.578Z,15.98
2018-09-03T00:10:30.784Z,15.99
2018-09-03T00:10:34.982Z,15.98
2018-09-03T00:10:39.180Z,15.98
2018-09-03T00:10:43.273Z,15.98
2018-09-03T00:10:47.357Z,15.98
2018-09-03T00:10:51.557Z,15.98
2018-09-03T00:10:55.858Z,15.98
2018-09-03T00:11:00.054Z,15.97
2018-09-03T00:11:04.249Z,15.98
2018-09-03T00:11:08.336Z,15.96
2018-09-03T00:11:12.528Z,15.97
2018-09-03T00:11:16.734Z,15.97
2018-09-03T00:11:20.825Z,15.96
2018-09-03T00:11:25.069Z,15.96
2018-09-03T00:11:29.050Z,15.96
2018-09-03T00:11:33.256Z,15.95
2018-09-03T00:11:37.446Z,15.96
2018-09-03T00:11:41.640Z,15.95
2018-09-03T00:11:45.727Z,15.95
2018-09-03T00:11:49.934Z,15.95
2018-09-03T00:11:54.126Z,15.94
2018-09-03T00:11:58.216Z,15.95
2018-09-03T00:12:02.212Z,15.94
2018-09-03T00:12:06.566Z,15.94
2018-09-03T00:12:10.655Z,15.94
2018-09-03T00:12:14.855Z,15.94
2018-09-03T00:12:19.164Z,15.93
2018-09-03T00:12:23.361Z,15.93
2018-09-03T00:12:27.565Z,15.93
2018-09-03T00:12:31.665Z,15.94
2018-09-03T00:12:35.975Z,15.92
2018-09-03T00:12:40.064Z,15.92
2018-09-03T00:12:44.259Z,15.93
2018-09-03T00:12:48.353Z,15.92
2018-09-03T00:12:52.488Z,15.92
2018-09-03T00:12:56.698Z,15.93
2018-09-03T00:13:00.794Z,15.92
2018-09-03T00:13:05.104Z,15.92
2018-09-03T00:13:09.085Z,15.92
2018-09-03T00:13:13.386Z,15.92
2018-09-03T00:13:17.479Z,15.92
2018-09-03T00:13:21.575Z,15.92
2018-09-03T00:13:25.770Z,15.93
2018-09-03T00:13:30.068Z,15.93
2018-09-03T00:13:34.162Z,15.93
2018-09-03T00:13:38.467Z,15.93
2018-09-03T00:13:42.664Z,15.93
2018-09-03T00:13:46.648Z,15.93
2018-09-03T00:13:50.743Z,15.93
2018-09-03T00:13:55.048Z,15.93
2018-09-03T00:13:59.254Z,15.93
2018-09-03T00:14:03.135Z,15.94
2018-09-03T00:14:07.337Z,15.94
2018-09-03T00:14:11.647Z,15.93
2018-09-03T00:14:15.849Z,15.94
2018-09-03T00:14:20.046Z,15.94
2018-09-03T00:14:24.161Z,15.94
2018-09-03T00:14:28.265Z,15.94
2018-09-03T00:14:32.467Z,15.94
2018-09-03T00:14:36.671Z,15.93
2018-09-03T00:14:40.865Z,15.93
2018-09-03T00:14:45.061Z,15.93
2018-09-03T00:14:49.157Z,15.92
2018-09-03T00:14:53.473Z,15.92
2018-09-03T00:14:57.667Z,15.93
2018-09-03T00:15:01.974Z,15.92
2018-09-03T00:15:05.957Z,15.93
2018-09-03T00:15:10.045Z,15.92
2018-09-03T00:15:13.921Z,15.93
2018-09-03T00:15:18.222Z,15.92
2018-09-03T00:15:22.318Z,15.93
2018-09-03T00:15:26.621Z,15.93
2018-09-03T00:15:30.819Z,15.93
2018-09-03T00:15:35.128Z,15.93
2018-09-03T00:15:39.321Z,15.92
2018-09-03T00:15:43.434Z,15.92
2018-09-03T00:15:47.640Z,15.92
2018-09-03T00:15:51.843Z,15.91
2018-09-03T00:15:56.041Z,15.92
2018-09-03T00:16:00.137Z,15.92
2018-09-03T00:16:04.486Z,15.92
2018-09-03T00:16:08.259Z,15.92
2018-09-03T00:16:12.459Z,15.92
2018-09-03T00:16:16.657Z,15.92
2018-09-03T00:16:20.536Z,15.92
2018-09-03T00:16:24.625Z,15.92
2018-09-03T00:16:28.606Z,15.92
2018-09-03T00:16:32.816Z,15.92
2018-09-03T00:16:37.013Z,15.92
2018-09-03T00:16:41.324Z,15.92
2018-09-03T00:16:45.424Z,15.92
2018-09-03T00:16:49.628Z,15.92
2018-09-03T00:16:53.512Z,15.91
2018-09-03T00:16:57.609Z,15.92
2018-09-03T00:17:01.590Z,15.92
2018-09-03T00:17:05.789Z,15.92
2018-09-03T00:17:09.881Z,15.92
2018-09-03T00:17:13.984Z,15.92
2018-09-03T00:17:17.966Z,15.91
2018-09-03T00:17:22.273Z,15.93
2018-09-03T00:17:26.475Z,15.92
2018-09-03T00:17:30.792Z,15.92
2018-09-03T00:17:34.992Z,15.92
2018-09-03T00:17:39.187Z,15.92
2018-09-03T00:17:43.277Z,15.92
2018-09-03T00:17:47.580Z,15.92
2018-09-03T00:17:51.889Z,15.92
2018-09-03T00:17:55.976Z,15.92
2018-09-03T00:18:00.175Z,15.92
2018-09-03T00:18:04.384Z,15.93
2018-09-03T00:18:08.583Z,15.92
2018-09-03T00:18:12.887Z,15.92
2018-09-03T00:18:17.191Z,15.92
2018-09-03T00:18:21.071Z,15.92
2018-09-03T00:18:25.376Z,15.92
2018-09-03T00:18:29.365Z,15.91
2018-09-03T00:18:33.464Z,15.92
2018-09-03T00:18:37.659Z,15.91
2018-09-03T00:18:41.963Z,15.91
2018-09-03T00:18:46.052Z,15.91
2018-09-03T00:18:50.249Z,15.91
2018-09-03T00:18:54.447Z,15.91
2018-09-03T00:18:58.430Z,15.91
2018-09-03T00:19:02.752Z,15.9
2018-09-03T00:19:06.947Z,15.91
2018-09-03T00:19:11.045Z,15.9
2018-09-03T00:19:15.029Z,15.9
2018-09-03T00:19:19.334Z,15.89
2018-09-03T00:19:23.430Z,15.9
2018-09-03T00:19:27.427Z,15.89
2018-09-03T00:19:31.623Z,15.89
2018-09-03T00:19:35.821Z,15.89
2018-09-03T00:19:40.131Z,15.89
2018-09-03T00:19:44.329Z,15.88
2018-09-03T00:19:48.323Z,15.88
2018-09-03T00:19:52.517Z,15.88
2018-09-03T00:19:56.730Z,15.88
2018-09-03T00:20:00.928Z,15.89
2018-09-03T00:20:05.035Z,15.87
2018-09-03T00:20:09.267Z,15.88
2018-09-03T00:20:13.564Z,15.87
2018-09-03T00:20:17.555Z,15.87
2018-09-03T00:20:21.756Z,15.87
2018-09-03T00:20:25.954Z,15.87
2018-09-03T00:20:30.262Z,15.87
2018-09-03T00:20:34.364Z,15.87
2018-09-03T00:20:38.677Z,15.86
2018-09-03T00:20:42.979Z,15.86
2018-09-03T00:20:47.286Z,15.86
2018-09-03T00:20:51.481Z,15.86
2018-09-03T00:20:55.836Z,15.86
2018-09-03T00:21:00.142Z,15.85
2018-09-03T00:21:04.338Z,15.85
2018-09-03T00:21:08.547Z,15.85
2018-09-03T00:21:12.747Z,15.84
2018-09-03T00:21:16.840Z,15.84
2018-09-03T00:21:21.032Z,15.84
2018-09-03T00:21:25.336Z,15.84
2018-09-03T00:21:29.532Z,15.83
2018-09-03T00:21:33.622Z,15.84
2018-09-03T00:21:37.820Z,15.84
2018-09-03T00:21:41.906Z,15.83
2018-09-03T00:21:46.125Z,15.84
2018-09-03T00:21:50.241Z,15.84
2018-09-03T00:21:54.434Z,15.83
2018-09-03T00:21:58.733Z,15.84
2018-09-03T00:22:02.986Z,15.83
2018-09-03T00:22:07.180Z,15.84
2018-09-03T00:22:11.265Z,15.83
2018-09-03T00:22:15.356Z,15.84
2018-09-03T00:22:19.552Z,15.84
2018-09-03T00:22:23.755Z,15.84
2018-09-03T00:22:27.959Z,15.83
2018-09-03T00:22:32.156Z,15.83
2018-09-03T00:22:36.461Z,15.83
2018-09-03T00:22:40.553Z,15.83
2018-09-03T00:22:44.856Z,15.83
2018-09-03T00:22:49.167Z,15.84
2018-09-03T00:22:53.262Z,15.83
2018-09-03T00:22:57.463Z,15.83
2018-09-03T00:23:01.453Z,15.83
2018-09-03T00:23:05.490Z,15.82
2018-09-03T00:23:09.701Z,15.83
2018-09-03T00:23:13.795Z,15.83
2018-09-03T00:23:18.004Z,15.82
2018-09-03T00:23:22.312Z,15.82
2018-09-03T00:23:26.408Z,15.82
2018-09-03T00:23:30.611Z,15.83
2018-09-03T00:23:34.813Z,15.82
2018-09-03T00:23:39.026Z,15.82
2018-09-03T00:23:43.325Z,15.82
2018-09-03T00:23:47.522Z,15.82
2018-09-03T00:23:51.828Z,15.82
2018-09-03T00:23:56.027Z,15.81
2018-09-03T00:24:00.383Z,15.82
2018-09-03T00:24:04.580Z,15.82
2018-09-03T00:24:08.571Z,15.81
2018-09-03T00:24:12.666Z,15.81
2018-09-03T00:24:16.862Z,15.81
2018-09-03T00:24:21.170Z,15.82
2018-09-03T00:24:25.266Z,15.81
2018-09-03T00:24:29.262Z,15.82
2018-09-03T00:24:33.355Z,15.82
2018-09-03T00:24:37.552Z,15.82
2018-09-03T00:24:41.859Z,15.82
2018-09-03T00:24:46.062Z,15.82
2018-09-03T00:24:50.386Z,15.82
2018-09-03T00:24:54.581Z,15.81
2018-09-03T00:24:58.782Z,15.81
2018-09-03T00:25:02.773Z,15.81
2018-09-03T00:25:06.871Z,15.81
2018-09-03T00:25:11.070Z,15.82
2018-09-03T00:25:15.273Z,15.81
2018-09-03T00:25:19.587Z,15.81
2018-09-03T00:25:23.789Z,15.82
2018-09-03T00:25:28.120Z,15.81
2018-09-03T00:25:32.102Z,15.81
2018-09-03T00:25:36.084Z,15.81
2018-09-03T00:25:40.278Z,15.81
2018-09-03T00:25:44.474Z,15.82
2018-09-03T00:25:48.780Z,15.81
2018-09-03T00:25:52.994Z,15.81
2018-09-03T00:25:57.192Z,15.82
2018-09-03T00:26:01.388Z,15.82
2018-09-03T00:26:05.494Z,15.82
2018-09-03T00:26:09.590Z,15.82
2018-09-03T00:26:13.681Z,15.82
2018-09-03T00:26:17.769Z,15.83
2018-09-03T00:26:21.970Z,15.82
2018-09-03T00:26:26.279Z,15.82
2018-09-03T00:26:30.474Z,15.83
2018-09-03T00:26:34.576Z,15.82
2018-09-03T00:26:38.556Z,15.82
2018-09-03T00:26:42.753Z,15.82
2018-09-03T00:26:47.058Z,15.83
2018-09-03T00:26:51.154Z,15.83
2018-09-03T00:26:55.474Z,15.82
2018-09-03T00:26:59.678Z,15.82
2018-09-03T00:27:04.088Z,15.83
2018-09-03T00:27:08.410Z,15.83
2018-09-03T00:27:12.399Z,15.83
2018-09-03T00:27:16.506Z,15.83
2018-09-03T00:27:20.813Z,15.84
2018-09-03T00:27:24.694Z,15.83
2018-09-03T00:27:28.784Z,15.84
2018-09-03T00:27:32.982Z,15.83
2018-09-03T00:27:37.175Z,15.83
2018-09-03T00:27:41.478Z,15.83
2018-09-03T00:27:45.784Z,15.84
2018-09-03T00:27:49.989Z,15.84
2018-09-03T00:27:54.300Z,15.83
2018-09-03T00:27:58.613Z,15.83
2018-09-03T00:28:02.709Z,15.84
2018-09-03T00:28:07.025Z,15.84
2018-09-03T00:28:11.117Z,15.84
2018-09-03T00:28:15.424Z,15.84
2018-09-03T00:28:19.736Z,15.84
2018-09-03T00:28:23.828Z,15.84
2018-09-03T00:28:28.131Z,15.84
2018-09-03T00:28:32.434Z,15.84
2018-09-03T00:28:36.629Z,15.84
2018-09-03T00:28:40.725Z,15.84
2018-09-03T00:28:44.922Z,15.84
2018-09-03T00:28:49.235Z,15.84
2018-09-03T00:28:53.431Z,15.84
2018-09-03T00:28:57.520Z,15.84
2018-09-03T00:29:01.814Z,15.84
2018-09-03T00:29:05.919Z,15.84
2018-09-03T00:29:10.115Z,15.85
2018-09-03T00:29:14.310Z,15.84
2018-09-03T00:29:18.412Z,15.84
2018-09-03T00:29:22.617Z,15.84
2018-09-03T00:29:26.605Z,15.84
2018-09-03T00:29:30.803Z,15.84
2018-09-03T00:29:34.911Z,15.83
2018-09-03T00:29:39.208Z,15.84
2018-09-03T00:29:43.509Z,15.84
2018-09-03T00:29:47.812Z,15.84
2018-09-03T00:29:52.023Z,15.83
2018-09-03T00:29:56.235Z,15.83
2018-09-03T00:30:00.534Z,15.83
2018-09-03T00:30:04.411Z,15.84
2018-09-03T00:30:08.505Z,15.83
2018-09-03T00:30:12.807Z,15.83
2018-09-03T00:30:17.106Z,15.83
2018-09-03T00:30:21.210Z,15.83
2018-09-03T00:30:25.528Z,15.83
2018-09-03T00:30:29.732Z,15.83
2018-09-03T00:30:33.929Z,15.83
2018-09-03T00:30:38.036Z,15.84
2018-09-03T00:30:42.141Z,15.83
2018-09-03T00:30:46.335Z,15.82
2018-09-03T00:30:50.531Z,15.82
2018-09-03T00:30:54.727Z,15.83
2018-09-03T00:30:59.031Z,15.82
2018-09-03T00:31:03.013Z,15.83
2018-09-03T00:31:07.203Z,15.83
2018-09-03T00:31:11.299Z,15.83
2018-09-03T00:31:15.497Z,15.82
2018-09-03T00:31:19.691Z,15.83
2018-09-03T00:31:23.885Z,15.83
2018-09-03T00:31:27.974Z,15.83
2018-09-03T00:31:32.068Z,15.83
2018-09-03T00:31:36.373Z,15.82
2018-09-03T00:31:40.569Z,15.82
2018-09-03T00:31:44.763Z,15.82
2018-09-03T00:31:49.060Z,15.83
2018-09-03T00:31:53.260Z,15.82
2018-09-03T00:31:57.463Z,15.83
2018-09-03T00:32:01.661Z,15.82
2018-09-03T00:32:05.855Z,15.82
2018-09-03T00:32:09.990Z,15.82
2018-09-03T00:32:14.078Z,15.82
2018-09-03T00:32:18.275Z,15.82
2018-09-03T00:32:22.575Z,15.82
2018-09-03T00:32:26.872Z,15.83
2018-09-03T00:32:31.068Z,15.82
2018-09-03T00:32:35.269Z,15.83
2018-09-03T00:32:39.482Z,15.83
2018-09-03T00:32:43.680Z,15.82
2018-09-03T00:32:47.983Z,15.83
2018-09-03T00:32:52.180Z,15.83
2018-09-03T00:32:56.375Z,15.83
2018-09-03T00:33:00.466Z,15.83
2018-09-03T00:33:04.657Z,15.82
2018-09-03T00:33:08.754Z,15.83
2018-09-03T00:33:12.959Z,15.82
2018-09-03T00:33:17.152Z,15.83
2018-09-03T00:33:21.458Z,15.82
2018-09-03T00:33:25.653Z,15.82
2018-09-03T00:33:29.857Z,15.82
2018-09-03T00:33:34.160Z,15.82
2018-09-03T00:33:38.467Z,15.83
2018-09-03T00:33:42.661Z,15.82
2018-09-03T00:33:46.965Z,15.83
2018-09-03T00:33:51.166Z,15.82
2018-09-03T00:33:55.363Z,15.82
2018-09-03T00:33:59.557Z,15.82
2018-09-03T00:34:03.757Z,15.82
2018-09-03T00:34:08.053Z,15.82
2018-09-03T00:34:12.352Z,15.82
2018-09-03T00:34:16.655Z,15.82
2018-09-03T00:34:20.745Z,15.81
2018-09-03T00:34:24.836Z,15.82
2018-09-03T00:34:28.720Z,15.81
2018-09-03T00:34:32.918Z,15.81
2018-09-03T00:34:37.229Z,15.82
2018-09-03T00:34:41.446Z,15.82
2018-09-03T00:34:45.648Z,15.81
2018-09-03T00:34:49.958Z,15.81
2018-09-03T00:34:54.066Z,15.81
2018-09-03T00:34:58.370Z,15.81
2018-09-03T00:35:02.719Z,15.81
2018-09-03T00:35:07.033Z,15.81
2018-09-03T00:35:11.229Z,15.8
2018-09-03T00:35:15.422Z,15.8
2018-09-03T00:35:19.622Z,15.81
2018-09-03T00:35:23.713Z,15.81
2018-09-03T00:35:28.016Z,15.81
2018-09-03T00:35:32.212Z,15.81
2018-09-03T00:35:36.416Z,15.81
2018-09-03T00:35:40.718Z,15.8
2018-09-03T00:35:45.019Z,15.81
2018-09-03T00:35:49.213Z,15.81
2018-09-03T00:35:53.419Z,15.81
2018-09-03T00:35:57.509Z,15.81
2018-09-03T00:36:01.702Z,15.81
2018-09-03T00:36:05.787Z,15.81
2018-09-03T00:36:09.997Z,15.81
2018-09-03T00:36:14.202Z,15.81
2018-09-03T00:36:18.402Z,15.81
2018-09-03T00:36:22.614Z,15.81
2018-09-03T00:36:26.817Z,15.81
2018-09-03T00:36:31.118Z,15.81
2018-09-03T00:36:35.212Z,15.81
2018-09-03T00:36:39.296Z,15.81
2018-09-03T00:36:43.603Z,15.81
2018-09-03T00:36:47.800Z,15.81
2018-09-03T00:36:51.994Z,15.81
2018-09-03T00:36:56.305Z,15.81
2018-09-03T00:37:00.498Z,15.81
2018-09-03T00:37:04.641Z,15.81
2018-09-03T00:37:08.836Z,15.81
2018-09-03T00:37:12.928Z,15.81
2018-09-03T00:37:17.025Z,15.83
2018-09-03T00:37:21.119Z,15.82
2018-09-03T00:37:25.218Z,15.82
2018-09-03T00:37:29.480Z,15.82
2018-09-03T00:37:33.685Z,15.83
2018-09-03T00:37:37.882Z,15.82
2018-09-03T00:37:42.084Z,15.82
2018-09-03T00:37:46.178Z,15.82
2018-09-03T00:37:50.479Z,15.82
2018-09-03T00:37:54.784Z,15.81
2018-09-03T00:37:58.975Z,15.81
2018-09-03T00:38:03.063Z,15.81
2018-09-03T00:38:07.151Z,15.81
2018-09-03T00:38:11.346Z,15.81
2018-09-03T00:38:15.538Z,15.81
2018-09-03T00:38:19.848Z,15.8
2018-09-03T00:38:23.935Z,15.8
2018-09-03T00:38:28.141Z,15.8
2018-09-03T00:38:32.233Z,15.8
2018-09-03T00:38:36.323Z,15.8
2018-09-03T00:38:40.413Z,15.79
2018-09-03T00:38:44.609Z,15.79
2018-09-03T00:38:48.818Z,15.79
2018-09-03T00:38:52.905Z,15.79
2018-09-03T00:38:57.118Z,15.78
2018-09-03T00:39:01.424Z,15.79
2018-09-03T00:39:05.515Z,15.78
2018-09-03T00:39:09.727Z,15.78
2018-09-03T00:39:14.034Z,15.78
2018-09-03T00:39:18.247Z,15.78
2018-09-03T00:39:22.442Z,15.78
2018-09-03T00:39:26.539Z,15.78
2018-09-03T00:39:30.743Z,15.78
2018-09-03T00:39:34.850Z,15.78
2018-09-03T00:39:39.050Z,15.78
2018-09-03T00:39:43.252Z,15.78
2018-09-03T00:39:47.551Z,15.79
2018-09-03T00:39:51.750Z,15.79
2018-09-03T00:39:55.945Z,15.78
2018-09-03T00:40:00.036Z,15.77
2018-09-03T00:40:04.112Z,15.78
2018-09-03T00:40:08.416Z,15.77
2018-09-03T00:40:12.615Z,15.77
2018-09-03T00:40:16.813Z,15.77
2018-09-03T00:40:20.958Z,15.77
2018-09-03T00:40:25.154Z,15.77
2018-09-03T00:40:29.348Z,15.77
2018-09-03T00:40:33.650Z,15.77
2018-09-03T00:40:37.951Z,15.77
2018-09-03T00:40:42.254Z,15.77
2018-09-03T00:40:46.548Z,15.76
2018-09-03T00:40:50.740Z,15.77
2018-09-03T00:40:54.935Z,15.76
2018-09-03T00:40:59.135Z,15.76
2018-09-03T00:41:03.339Z,15.76
2018-09-03T00:41:07.430Z,15.76
2018-09-03T00:41:11.627Z,15.76
2018-09-03T00:41:15.723Z,15.75
2018-09-03T00:41:19.927Z,15.75
2018-09-03T00:41:24.124Z,15.75
2018-09-03T00:41:28.437Z,15.74
2018-09-03T00:41:32.740Z,15.74
2018-09-03T00:41:36.942Z,15.73
2018-09-03T00:41:41.240Z,15.73
2018-09-03T00:41:45.434Z,15.73
2018-09-03T00:41:49.742Z,15.73
2018-09-03T00:41:53.617Z,15.73
2018-09-03T00:41:57.926Z,15.73
2018-09-03T00:42:02.021Z,15.72
2018-09-03T00:42:06.113Z,15.73
2018-09-03T00:42:10.102Z,15.72
2018-09-03T00:42:14.309Z,15.72
2018-09-03T00:42:18.504Z,15.72
2018-09-03T00:42:22.711Z,15.71
2018-09-03T00:42:26.918Z,15.72
2018-09-03T00:42:31.116Z,15.71
2018-09-03T00:42:35.425Z,15.71
2018-09-03T00:42:39.630Z,15.71
2018-09-03T00:42:43.724Z,15.71
2018-09-03T00:42:47.919Z,15.7
2018-09-03T00:42:51.907Z,15.71
2018-09-03T00:42:56.106Z,15.7
2018-09-03T00:43:00.313Z,15.7
2018-09-03T00:43:04.613Z,15.7
2018-09-03T00:43:08.806Z,15.7
2018-09-03T00:43:12.898Z,15.69
2018-09-03T00:43:17.104Z,15.7
2018-09-03T00:43:21.302Z,15.7
2018-09-03T00:43:25.610Z,15.69
2018-09-03T00:43:29.915Z,15.69
2018-09-03T00:43:34.110Z,15.69
2018-09-03T00:43:38.423Z,15.68
2018-09-03T00:43:42.729Z,15.69
2018-09-03T00:43:46.927Z,15.68
2018-09-03T00:43:50.918Z,15.68
2018-09-03T00:43:55.114Z,15.67
2018-09-03T00:43:59.303Z,15.68
2018-09-03T00:44:03.620Z,15.67
2018-09-03T00:44:07.826Z,15.68
2018-09-03T00:44:12.128Z,15.68
2018-09-03T00:44:16.435Z,15.68
2018-09-03T00:44:20.416Z,15.68
2018-09-03T00:44:24.610Z,15.67
2018-09-03T00:44:28.707Z,15.67
2018-09-03T00:44:32.798Z,15.67
2018-09-03T00:44:36.993Z,15.67
2018-09-03T00:44:41.189Z,15.67
2018-09-03T00:44:45.394Z,15.67
2018-09-03T00:44:49.702Z,15.67
2018-09-03T00:44:53.902Z,15.66
2018-09-03T00:44:58.207Z,15.67
2018-09-03T00:45:02.292Z,15.66
2018-09-03T00:45:06.385Z,15.66
2018-09-03T00:45:10.487Z,15.66
2018-09-03T00:45:14.701Z,15.66
2018-09-03T00:45:19.001Z,15.66
2018-09-03T00:45:23.089Z,15.65
2018-09-03T00:45:27.444Z,15.65
2018-09-03T00:45:31.748Z,15.66
2018-09-03T00:45:35.944Z,15.65
2018-09-03T00:45:40.036Z,15.65
2018-09-03T00:45:44.245Z,15.65
2018-09-03T00:45:48.555Z,15.64
2018-09-03T00:45:52.651Z,15.63
2018-09-03T00:45:56.735Z,15.64
2018-09-03T00:46:00.986Z,15.63
2018-09-03T00:46:05.080Z,15.64
2018-09-03T00:46:09.276Z,15.62
2018-09-03T00:46:13.471Z,15.63
2018-09-03T00:46:17.777Z,15.63
2018-09-03T00:46:21.870Z,15.63
2018-09-03T00:46:26.069Z,15.63
2018-09-03T00:46:30.272Z,15.63
2018-09-03T00:46:34.471Z,15.63
2018-09-03T00:46:38.559Z,15.63
2018-09-03T00:46:42.647Z,15.63
2018-09-03T00:46:46.846Z,15.62
2018-09-03T00:46:51.042Z,15.62
2018-09-03T00:46:55.025Z,15.62
2018-09-03T00:46:59.220Z,15.61
2018-09-03T00:47:03.527Z,15.61
2018-09-03T00:47:07.531Z,15.61
2018-09-03T00:47:11.843Z,15.61
2018-09-03T00:47:16.044Z,15.61
2018-09-03T00:47:20.360Z,15.6
2018-09-03T00:47:24.657Z,15.6
2018-09-03T00:47:28.848Z,15.6
2018-09-03T00:47:33.042Z,15.6
2018-09-03T00:47:37.137Z,15.59
2018-09-03T00:47:41.340Z,15.59
2018-09-03T00:47:45.532Z,15.59
2018-09-03T00:47:49.833Z,15.59
2018-09-03T00:47:53.821Z,15.59
2018-09-03T00:47:58.124Z,15.59
2018-09-03T00:48:02.469Z,15.58
2018-09-03T00:48:06.768Z,15.58
2018-09-03T00:48:11.093Z,15.57
2018-09-03T00:48:15.294Z,15.57
2018-09-03T00:48:19.494Z,15.58
2018-09-03T00:48:23.698Z,15.57
2018-09-03T00:48:27.901Z,15.57
2018-09-03T00:48:32.215Z,15.58
2018-09-03T00:48:36.206Z,15.57
2018-09-03T00:48:40.195Z,15.57
2018-09-03T00:48:44.392Z,15.57
2018-09-03T00:48:48.700Z,15.57
2018-09-03T00:48:52.905Z,15.57
2018-09-03T00:48:57.108Z,15.57
2018-09-03T00:49:01.311Z,15.56
2018-09-03T00:49:05.521Z,15.57
2018-09-03T00:49:09.732Z,15.56
2018-09-03T00:49:13.828Z,15.56
2018-09-03T00:49:17.809Z,15.56
2018-09-03T00:49:22.002Z,15.56
2018-09-03T00:49:26.224Z,15.55
2018-09-03T00:49:30.214Z,15.55
2018-09-03T00:49:34.305Z,15.55
2018-09-03T00:49:38.618Z,15.55
2018-09-03T00:49:42.706Z,15.55
2018-09-03T00:49:47.010Z,15.55
2018-09-03T00:49:51.343Z,15.54
2018-09-03T00:49:55.666Z,15.55
2018-09-03T00:49:59.864Z,15.55
2018-09-03T00:50:03.952Z,15.54
2018-09-03T00:50:07.940Z,15.54
2018-09-03T00:50:12.037Z,15.55
2018-09-03T00:50:16.233Z,15.54
2018-09-03T00:50:20.321Z,15.54
2018-09-03T00:50:24.528Z,15.54
2018-09-03T00:50:28.618Z,15.53
2018-09-03T00:50:32.599Z,15.54
2018-09-03T00:50:36.906Z,15.54
2018-09-03T00:50:41.104Z,15.54
2018-09-03T00:50:45.405Z,15.54
2018-09-03T00:50:49.610Z,15.53
2018-09-03T00:50:53.806Z,15.54
2018-09-03T00:50:58.031Z,15.53
2018-09-03T00:51:02.171Z,15.54
2018-09-03T00:51:06.160Z,15.53
2018-09-03T00:51:10.471Z,15.53
2018-09-03T00:51:14.773Z,15.53
2018-09-03T00:51:18.866Z,15.53
2018-09-03T00:51:23.070Z,15.52
2018-09-03T00:51:27.374Z,15.53
2018-09-03T00:51:31.572Z,15.52
2018-09-03T00:51:35.666Z,15.53
2018-09-03T00:51:39.862Z,15.52
2018-09-03T00:51:44.166Z,15.52
2018-09-03T00:51:48.261Z,15.52
2018-09-03T00:51:52.457Z,15.52
2018-09-03T00:51:56.653Z,15.52
2018-09-03T00:52:00.963Z,15.52
2018-09-03T00:52:05.207Z,15.52
2018-09-03T00:52:09.459Z,15.52
2018-09-03T00:52:13.754Z,15.51
2018-09-03T00:52:17.842Z,15.52
2018-09-03T00:52:22.143Z,15.52
2018-09-03T00:52:26.451Z,15.52
2018-09-03T00:52:30.534Z,15.51
2018-09-03T00:52:34.519Z,15.51
2018-09-03T00:52:38.717Z,15.51
2018-09-03T00:52:42.805Z,15.51
2018-09-03T00:52:47.008Z,15.51
2018-09-03T00:52:51.314Z,15.51
2018-09-03T00:52:55.562Z,15.5
2018-09-03T00:52:59.870Z,15.5
2018-09-03T00:53:04.171Z,15.5
2018-09-03T00:53:08.155Z,15.5
2018-09-03T00:53:12.353Z,15.49
2018-09-03T00:53:16.549Z,15.5
2018-09-03T00:53:20.649Z,15.5
2018-09-03T00:53:24.848Z,15.5
2018-09-03T00:53:29.061Z,15.51
2018-09-03T00:53:33.259Z,15.5
2018-09-03T00:53:37.243Z,15.5
2018-09-03T00:53:41.341Z,15.5
2018-09-03T00:53:45.546Z,15.5
2018-09-03T00:53:49.751Z,15.5
2018-09-03T00:53:54.064Z,15.5
2018-09-03T00:53:58.261Z,15.5